Time;durP1;ratioP1;P1;durP2;ratioP2;P2;SDS_P1;SDS_P2;PMS_P1;PMS_P2;Temp;Humidity;BMP_temperature;BMP_pressure;BME280_temperature;BME280_humidity;BME280_pressure;Samples;Min_cycle;Max_cycle;Signal;HPM_P1;HPM_P2
2022/07/07 00:01:15;;;;;;;;;7.00;7.00;;;;;17.06;62.55;99845.44;6283716;20;2769060;-59
2022/07/07 00:03:43;;;;;;;;;8.00;7.00;;;;;17.01;62.69;99849.50;6288428;20;2739911;-56
2022/07/07 00:06:11;;;;;;;;;9.00;7.00;;;;;17.14;63.20;99843.88;6284345;20;2727339;-58
2022/07/07 00:08:38;;;;;;;;;8.00;7.00;;;;;17.07;63.01;99846.28;6285015;20;2750253;-58
2022/07/07 00:11:06;;;;;;;;;8.00;8.00;;;;;16.92;64.11;99840.31;6283136;20;2748308;-58
2022/07/07 00:13:36;;;;;;;;;8.40;8.40;;;;;16.73;64.71;99842.84;6310461;20;2754450;-58
2022/07/07 00:16:05;;;;;;;;;8.60;8.00;;;;;17.26;62.74;99846.41;6305328;20;2738861;-56
2022/07/07 00:18:34;;;;;;;;;7.00;7.00;;;;;17.09;63.40;99849.75;6315143;20;2739923;-58
2022/07/07 00:21:02;;;;;;;;;9.00;8.00;;;;;17.41;62.68;99846.94;6285200;20;2754588;-58
2022/07/07 00:23:31;;;;;;;;;11.00;9.00;;;;;17.27;63.42;99842.72;6290755;20;2763796;-56
2022/07/07 00:25:59;;;;;;;;;11.00;11.00;;;;;17.20;64.04;99841.53;6279395;20;2795119;-57
2022/07/07 00:28:27;;;;;;;;;9.00;8.00;;;;;17.51;63.13;99839.69;6311691;20;2746204;-56
2022/07/07 00:30:56;;;;;;;;;11.33;8.33;;;;;17.28;64.56;99838.16;6281571;20;2771200;-53
2022/07/07 00:33:27;;;;;;;;;9.80;9.60;;;;;17.43;64.73;99846.78;6339254;20;2762792;-56
2022/07/07 00:35:55;;;;;;;;;10.50;10.50;;;;;17.44;64.81;99843.09;6279733;20;2809693;-57
2022/07/07 00:38:25;;;;;;;;;9.00;9.00;;;;;17.36;65.79;99838.34;6305942;20;2750311;-57
2022/07/07 00:40:55;;;;;;;;;9.67;9.67;;;;;17.07;67.12;99830.00;6312422;20;2772116;-57
2022/07/07 00:43:22;;;;;;;;;11.00;9.00;;;;;17.07;67.29;99830.88;6322045;20;2660761;-57
2022/07/07 00:46:37;;;;;;;;;13.00;13.00;;;;;17.00;68.29;99823.38;6283922;20;2796596;-57
2022/07/07 00:49:06;;;;;;;;;14.33;12.33;;;;;16.99;68.81;99821.69;6288208;20;3530471;-57
2022/07/07 00:51:36;;;;;;;;;9.00;9.00;;;;;16.76;70.10;99827.19;6316265;20;2763826;-56
2022/07/07 00:54:04;;;;;;;;;14.00;13.00;;;;;16.82;70.66;99826.66;6289098;20;2798207;-57
2022/07/07 00:56:32;;;;;;;;;13.00;12.00;;;;;16.87;70.54;99829.84;6286644;20;2808642;-57
2022/07/07 00:59:03;;;;;;;;;13.00;13.00;;;;;16.87;69.93;99827.13;6290877;20;2808674;-58
2022/07/07 01:01:32;;;;;;;;;14.00;14.00;;;;;16.71;70.74;99829.41;6288304;20;2800273;-57
2022/07/07 01:04:02;;;;;;;;;10.50;10.50;;;;;16.79;70.01;99823.38;6294236;20;2782579;-58
2022/07/07 01:06:32;;;;;;;;;12.67;11.67;;;;;16.64;70.63;99817.34;6282927;20;3525243;-58
2022/07/07 01:09:00;;;;;;;;;11.00;11.00;;;;;16.73;69.81;99824.72;6318785;20;2804413;-57
2022/07/07 01:11:57;;;;;;;;;9.67;9.67;;;;;16.99;69.04;99821.69;6285856;20;2769504;-55
2022/07/07 01:14:26;;;;;;;;;15.00;15.00;;;;;16.39;71.35;99814.00;6317820;20;3547195;-54
2022/07/07 01:16:55;;;;;;;;;14.67;14.00;;;;;16.40;70.88;99823.00;6313006;20;3538794;-58
2022/07/07 01:19:24;;;;;;;;;16.00;13.50;;;;;16.43;71.65;99820.91;6291246;20;2811852;-56
2022/07/07 01:22:00;;;;;;;;;10.00;9.50;;;;;16.51;71.43;99813.97;6284704;20;2780682;-57
2022/07/07 01:24:30;;;;;;;;;10.67;9.67;;;;;16.48;71.67;99814.22;6282936;20;2779624;-58
2022/07/07 01:27:14;;;;;;;;;11.50;10.50;;;;;16.31;72.62;99815.66;6315451;20;2786706;-57
2022/07/07 01:29:54;;;;;;;;;15.20;13.60;;;;;16.36;72.58;99808.84;6311268;20;2812865;-58
2022/07/07 01:32:25;;;;;;;;;13.00;13.00;;;;;16.13;73.40;99807.19;6282932;20;3526463;-56
2022/07/07 01:34:54;;;;;;;;;14.00;12.00;;;;;16.15;73.21;99807.94;6321054;20;2804552;-58
2022/07/07 01:37:24;;;;;;;;;13.00;11.00;;;;;16.05;73.96;99807.84;6281521;20;3533580;-57
2022/07/07 01:39:55;;;;;;;;;12.67;12.67;;;;;16.14;73.53;99803.50;6339468;20;2810665;-53
2022/07/07 01:42:24;;;;;;;;;13.00;11.67;;;;;16.27;72.80;99793.34;6313647;20;3516099;-56
2022/07/07 01:44:52;;;;;;;;;13.00;13.00;;;;;16.06;73.31;99801.44;6318379;20;2802463;-56
2022/07/07 01:47:24;;;;;;;;;13.67;12.00;;;;;16.56;71.77;99809.91;6283051;20;3529405;-56
2022/07/07 01:49:52;;;;;;;;;11.00;11.00;;;;;16.68;70.75;99808.00;6282951;20;3531465;-56
2022/07/07 01:52:21;;;;;;;;;12.33;11.00;;;;;16.44;70.83;99822.63;6284804;20;2792309;-54
2022/07/07 01:54:50;;;;;;;;;13.00;12.67;;;;;16.26;71.54;99823.31;6313117;20;2797374;-55
2022/07/07 01:57:17;;;;;;;;;14.50;14.50;;;;;16.34;72.62;99834.38;6314139;20;2809659;-56
2022/07/07 01:59:46;;;;;;;;;14.00;14.00;;;;;16.03;73.80;99834.19;6285890;20;3532640;-57
2022/07/07 02:02:15;;;;;;;;;14.00;13.00;;;;;16.02;75.06;99838.75;6316231;20;3535732;-56
2022/07/07 02:04:43;;;;;;;;;13.67;13.00;;;;;16.44;73.32;99838.03;6315457;20;3539818;-56
2022/07/07 02:07:12;;;;;;;;;17.00;17.00;;;;;16.46;73.75;99842.34;6283630;20;2831552;-58
2022/07/07 02:09:41;;;;;;;;;15.00;13.00;;;;;16.49;73.18;99845.78;6314828;20;3532537;-57
2022/07/07 02:12:09;;;;;;;;;15.00;15.00;;;;;16.58;73.86;99850.41;6289708;20;3532533;-55
2022/07/07 02:14:38;;;;;;;;;15.33;15.33;;;;;16.66;73.54;99845.22;6313408;20;3552365;-56
2022/07/07 02:17:06;;;;;;;;;16.33;15.33;;;;;16.32;75.22;99845.31;6285379;20;2816993;-57
2022/07/07 02:19:35;;;;;;;;;15.00;14.33;;;;;16.28;75.14;99841.16;6316225;20;3543998;-57
2022/07/07 02:22:04;;;;;;;;;16.67;15.67;;;;;16.08;75.98;99850.06;6319577;20;3560644;-56
2022/07/07 02:24:32;;;;;;;;;17.00;15.00;;;;;16.06;76.11;99850.19;6314412;20;2483591;-55
2022/07/07 02:27:00;;;;;;;;;17.67;16.67;;;;;15.80;75.61;99845.06;6282127;20;2827034;-55
2022/07/07 02:29:29;;;;;;;;;15.00;13.33;;;;;15.44;77.83;99858.78;6307334;20;3522123;-57
2022/07/07 02:31:58;;;;;;;;;15.00;14.00;;;;;15.78;76.20;99848.88;6311793;20;3538873;-56
2022/07/07 02:34:28;;;;;;;;;16.00;16.00;;;;;15.30;77.86;99851.75;6279527;20;2483622;-58
2022/07/07 02:36:56;;;;;;;;;15.50;15.00;;;;;15.76;76.83;99848.13;6279647;20;2800305;-58
2022/07/07 02:39:25;;;;;;;;;14.00;14.00;;;;;15.41;77.80;99848.22;6281179;20;3537708;-58
2022/07/07 02:41:53;;;;;;;;;17.67;16.33;;;;;15.28;79.06;99853.72;6277678;20;3566912;-57
2022/07/07 02:44:22;;;;;;;;;17.67;17.67;;;;;15.07;79.86;99850.84;6285862;20;2828551;-56
2022/07/07 02:46:50;;;;;;;;;18.67;18.00;;;;;15.85;76.76;99846.50;6310145;20;3570062;-58
2022/07/07 02:49:19;;;;;;;;;14.00;14.00;;;;;15.68;77.95;99850.56;6284947;20;2808587;-56
2022/07/07 02:51:48;;;;;;;;;16.00;16.00;;;;;15.65;77.44;99848.09;6281084;20;3549772;-58
2022/07/07 02:54:17;;;;;;;;;16.00;16.00;;;;;15.30;79.59;99852.63;6283497;20;3559702;-58
2022/07/07 02:56:45;;;;;;;;;18.00;18.00;;;;;14.93;80.95;99850.06;6283960;20;2833729;-55
2022/07/07 02:59:13;;;;;;;;;16.00;16.00;;;;;14.86;81.30;99839.84;6284813;20;2828459;-57
2022/07/07 03:01:42;;;;;;;;;15.00;15.00;;;;;14.56;82.68;99840.34;6312101;20;3544468;-58
2022/07/07 03:04:11;;;;;;;;;16.00;16.00;;;;;14.63;82.35;99845.16;6284035;20;3556475;-57
2022/07/07 03:06:40;;;;;;;;;15.67;15.67;;;;;14.76;81.75;99846.94;6279997;20;3552318;-54
2022/07/07 03:09:08;;;;;;;;;16.00;16.00;;;;;15.10;79.99;99843.34;6281140;20;3557569;-57
2022/07/07 03:11:37;;;;;;;;;16.00;16.00;;;;;15.36;79.57;99845.84;6284669;20;3559657;-57
2022/07/07 03:14:06;;;;;;;;;15.00;15.00;;;;;15.14;79.73;99844.84;6283042;20;3532548;-57
2022/07/07 03:16:34;;;;;;;;;17.50;15.50;;;;;15.04;79.92;99846.53;6279693;20;2491913;-57
2022/07/07 03:19:02;;;;;;;;;17.00;17.00;;;;;14.74;81.21;99838.06;6282030;20;3560631;-53
2022/07/07 03:21:31;;;;;;;;;19.00;18.33;;;;;15.09;80.93;99846.19;6281990;20;3563875;-53
2022/07/07 03:24:00;;;;;;;;;17.67;16.67;;;;;15.17;80.88;99842.91;6284749;20;2829520;-51
2022/07/07 03:26:28;;;;;;;;;15.50;15.50;;;;;14.91;81.26;99843.06;6309928;20;2491920;-54
2022/07/07 03:28:56;;;;;;;;;16.50;15.50;;;;;15.13;80.54;99839.53;6281902;20;2491960;-52
2022/07/07 03:31:25;;;;;;;;;20.50;16.00;;;;;15.49;79.68;99846.59;6281133;20;2833593;-53
2022/07/07 03:33:54;;;;;;;;;14.67;14.67;;;;;15.28;79.81;99845.59;6282596;20;3520022;-51
2022/07/07 03:36:22;;;;;;;;;17.00;16.00;;;;;15.33;80.17;99841.56;6312391;20;3562733;-51
2022/07/07 03:38:51;;;;;;;;;19.50;17.50;;;;;15.09;81.35;99838.94;6283891;20;2829460;-48
2022/07/07 03:41:20;;;;;;;;;17.67;15.33;;;;;15.33;79.53;99846.97;6283389;20;2827435;-51
2022/07/07 03:43:49;;;;;;;;;17.67;16.00;;;;;15.80;78.11;99842.34;6316611;20;3569003;-52
2022/07/07 03:46:17;;;;;;;;;18.33;16.67;;;;;15.43;79.27;99841.69;6315945;20;3559629;-53
2022/07/07 03:48:45;;;;;;;;;18.00;16.00;;;;;15.62;79.25;99851.06;6310011;20;2490001;-52
2022/07/07 03:51:13;;;;;;;;;15.50;15.50;;;;;15.46;79.64;99838.75;6280371;20;2494018;-52
2022/07/07 03:53:42;;;;;;;;;17.00;16.00;;;;;15.74;78.42;99847.38;6281287;20;2824222;-56
2022/07/07 03:56:11;;;;;;;;;17.50;17.00;;;;;15.54;79.26;99852.53;6281602;20;2834718;-52
2022/07/07 03:58:39;;;;;;;;;18.00;17.33;;;;;15.70;78.71;99844.06;6285639;20;2839848;-47
2022/07/07 04:01:08;;;;;;;;;15.67;15.67;;;;;16.03;76.17;99850.44;6312377;20;3550278;-52
2022/07/07 04:03:37;;;;;;;;;16.50;16.00;;;;;16.22;74.72;99852.50;6281964;20;2487825;-59
2022/07/07 04:06:06;;;;;;;;;16.00;16.00;;;;;16.46;73.84;99852.31;6278219;20;2491987;-58
2022/07/07 04:08:35;;;;;;;;;16.33;15.00;;;;;16.12;75.46;99855.09;6283763;20;3546082;-58
2022/07/07 04:11:03;;;;;;;;;17.50;16.00;;;;;16.09;75.12;99849.06;6279367;20;2491921;-58
2022/07/07 04:13:32;;;;;;;;;14.67;14.67;;;;;16.15;75.32;99856.72;6282366;20;3548153;-58
2022/07/07 04:16:00;;;;;;;;;15.67;15.33;;;;;15.96;77.16;99854.66;6278998;20;2820027;-59
2022/07/07 04:18:28;;;;;;;;;16.00;15.00;;;;;16.35;75.21;99850.50;6313584;20;2491914;-58
2022/07/07 04:20:57;;;;;;;;;17.33;14.33;;;;;15.85;77.09;99850.09;6280146;20;3543031;-60
2022/07/07 04:23:25;;;;;;;;;19.50;16.00;;;;;16.35;75.63;99849.63;6280301;20;2494521;-60
2022/07/07 04:25:54;;;;;;;;;15.00;15.00;;;;;16.09;76.79;99847.25;6278235;20;3543965;-60
2022/07/07 04:28:24;;;;;;;;;14.67;14.33;;;;;16.56;75.33;99841.53;6280687;20;3523283;-60
2022/07/07 04:30:52;;;;;;;;;15.50;15.00;;;;;16.76;74.13;99848.88;6284970;20;2491910;-48
2022/07/07 04:33:20;;;;;;;;;14.00;14.00;;;;;16.81;74.02;99849.38;6284287;20;3533591;-51
2022/07/07 04:35:49;;;;;;;;;15.33;15.00;;;;;16.85;74.17;99849.97;6311966;20;3536872;-53
2022/07/07 04:38:17;;;;;;;;;17.00;17.00;;;;;16.78;73.76;99846.94;6282789;20;2498313;-52
2022/07/07 04:40:45;;;;;;;;;15.00;15.00;;;;;17.00;73.68;99845.09;6284703;20;2808616;-50
2022/07/07 04:43:14;;;;;;;;;19.50;18.00;;;;;17.33;72.65;99853.03;6284925;20;2835720;-50
2022/07/07 04:45:42;;;;;;;;;17.50;15.50;;;;;17.36;72.58;99846.47;6283268;20;2487792;-53
2022/07/07 04:48:11;;;;;;;;;16.00;16.00;;;;;17.73;71.65;99854.94;6283590;20;3564831;-54
2022/07/07 04:50:39;;;;;;;;;14.33;14.33;;;;;17.80;70.68;99858.03;6281979;20;3534612;-53
2022/07/07 04:53:08;;;;;;;;;18.67;17.33;;;;;17.86;70.50;99848.47;6318414;20;3577353;-50
2022/07/07 04:55:36;;;;;;;;;18.00;16.00;;;;;17.87;70.28;99863.75;6314270;20;2831565;-54
2022/07/07 04:58:04;;;;;;;;;19.00;18.00;;;;;17.98;69.79;99858.22;6283585;20;2485647;-50
2022/07/07 05:00:33;;;;;;;;;33.33;28.67;;;;;18.21;69.25;99859.72;6285026;20;3619044;-52
2022/07/07 05:03:02;;;;;;;;;28.33;27.33;;;;;18.37;69.18;99863.75;6288969;20;3602307;-48
2022/07/07 05:05:31;;;;;;;;;27.67;27.00;;;;;18.74;67.88;99860.38;6285323;20;3584610;-50
2022/07/07 05:08:00;;;;;;;;;24.00;23.33;;;;;18.84;67.33;99853.09;6285650;20;3582519;-49
2022/07/07 05:10:29;;;;;;;;;23.33;21.00;;;;;19.06;66.36;99855.53;6317484;20;3592361;-49
2022/07/07 05:12:58;;;;;;;;;17.67;17.67;;;;;19.21;65.86;99858.66;6286050;20;2836735;-51
2022/07/07 05:15:26;;;;;;;;;15.00;14.00;;;;;19.41;64.89;99848.59;6314703;20;2483598;-49
2022/07/07 05:17:54;;;;;;;;;16.50;14.00;;;;;19.62;64.73;99852.97;6281751;20;2489816;-52
2022/07/07 05:20:26;;;;;;;;;16.67;15.00;;;;;19.68;64.69;99849.69;6284019;20;3556464;-54
2022/07/07 05:22:54;;;;;;;;;14.50;14.50;;;;;20.13;64.04;99851.63;6285505;20;2806537;-55
2022/07/07 05:25:23;;;;;;;;;15.00;14.00;;;;;20.34;62.81;99852.22;6282278;20;3541913;-50
2022/07/07 05:27:51;;;;;;;;;15.67;13.00;;;;;20.51;63.32;99850.53;6285820;20;2803414;-52
2022/07/07 05:30:20;;;;;;;;;11.67;11.67;;;;;20.79;61.42;99856.81;6314714;20;3522246;-49
2022/07/07 05:32:49;;;;;;;;;11.33;11.33;;;;;20.95;61.61;99850.63;6284778;20;3521440;-49
2022/07/07 05:35:17;;;;;;;;;14.00;14.00;;;;;21.27;59.41;99855.53;6301037;20;2800234;-52
2022/07/07 05:37:46;;;;;;;;;13.00;12.00;;;;;21.54;58.36;99855.53;6289056;20;3536788;-54
2022/07/07 05:40:15;;;;;;;;;10.67;10.67;;;;;21.57;58.20;99858.84;6286602;20;3513118;-50
2022/07/07 05:42:43;;;;;;;;;10.00;9.00;;;;;21.81;56.47;99868.19;6320319;20;3492947;-51
2022/07/07 05:45:16;;;;;;;;;9.33;9.33;;;;;22.20;55.09;99867.72;6318792;20;3488781;-52
2022/07/07 05:47:46;;;;;;;;;11.67;9.67;;;;;22.10;55.15;99857.72;6320137;20;3503442;-51
2022/07/07 05:50:14;;;;;;;;;10.00;10.00;;;;;22.27;53.80;99868.75;6318356;20;2788956;-52
2022/07/07 05:52:43;;;;;;;;;10.00;10.00;;;;;22.18;54.59;99859.66;6320198;20;2785663;-51
2022/07/07 05:55:11;;;;;;;;;12.67;11.33;;;;;22.33;54.08;99857.19;6320954;20;2483610;-52
2022/07/07 05:57:40;;;;;;;;;8.67;8.67;;;;;22.45;53.30;99855.81;6319656;20;3472136;-53
2022/07/07 06:00:10;;;;;;;;;11.00;9.67;;;;;22.79;53.04;99857.59;6319165;20;2786856;-51
2022/07/07 06:02:38;;;;;;;;;9.33;9.33;;;;;22.82;52.32;99860.00;6320564;20;3481505;-49
2022/07/07 06:05:08;;;;;;;;;9.33;9.33;;;;;22.96;52.63;99859.38;6318531;20;2770056;-53
2022/07/07 06:07:37;;;;;;;;;9.67;9.67;;;;;23.27;51.94;99861.41;6318893;20;3491886;-48
2022/07/07 06:10:07;;;;;;;;;10.00;10.00;;;;;23.29;51.77;99864.84;6319179;20;3513864;-52
2022/07/07 06:12:41;;;;;;;;;10.00;8.67;;;;;23.48;51.23;99860.88;6320912;20;2775241;-50
2022/07/07 06:15:10;;;;;;;;;10.00;10.00;;;;;24.06;50.42;99861.63;6319079;20;3511024;-52
2022/07/07 06:17:40;;;;;;;;;10.67;10.33;;;;;23.79;50.79;99866.50;6317716;20;3510768;-54
2022/07/07 06:20:29;;;;;;;;;11.00;11.00;;;;;24.07;49.65;99871.56;6319778;20;3507554;-48
2022/07/07 06:22:59;;;;;;;;;8.40;8.40;;;;;24.37;49.56;99866.28;6346337;20;2752383;-52
2022/07/07 06:25:29;;;;;;;;;9.20;9.20;;;;;25.07;47.22;99857.97;6313330;20;2775400;-52
2022/07/07 06:28:01;;;;;;;;;10.33;9.00;;;;;24.50;47.26;99863.84;6287357;20;3497149;-50
2022/07/07 06:30:30;;;;;;;;;10.33;10.33;;;;;24.93;46.05;99864.25;6318579;20;3507562;-52
2022/07/07 06:32:58;;;;;;;;;10.00;10.00;;;;;24.72;46.01;99864.91;6319585;20;2783632;-50
2022/07/07 06:35:27;;;;;;;;;10.00;10.00;;;;;24.90;45.62;99859.97;6319243;20;2783585;-53
2022/07/07 06:37:57;;;;;;;;;9.00;9.00;;;;;24.61;47.65;99866.19;6327095;20;2756501;-52
2022/07/07 06:40:25;;;;;;;;;9.00;9.00;;;;;25.90;43.92;99869.94;6317658;20;3467942;-54
2022/07/07 06:42:54;;;;;;;;;10.67;9.00;;;;;26.21;42.80;99875.22;6317879;20;2773162;-50
2022/07/07 06:45:23;;;;;;;;;8.00;8.00;;;;;25.76;43.36;99877.09;6317610;20;3461680;-52
2022/07/07 06:47:52;;;;;;;;;8.00;8.00;;;;;26.00;43.53;99877.91;6319477;20;2748170;-53
2022/07/07 06:50:25;;;;;;;;;11.00;10.00;;;;;25.87;42.40;99878.56;6315499;20;2789834;-52
2022/07/07 06:52:54;;;;;;;;;8.00;8.00;;;;;26.16;42.62;99876.84;6318821;20;2748307;-50
2022/07/07 06:55:24;;;;;;;;;3.00;3.00;;;;;25.87;41.31;99875.81;6343970;20;2733613;-51
2022/07/07 06:57:52;;;;;;;;;8.33;8.33;;;;;26.22;40.71;99876.09;6321179;20;2748625;-54
2022/07/07 07:00:21;;;;;;;;;5.00;5.00;;;;;26.57;39.88;99874.47;6322089;20;2737790;-50
2022/07/07 07:02:49;;;;;;;;;8.33;8.33;;;;;27.10;37.93;99879.69;6322744;20;2744069;-53
2022/07/07 07:05:18;;;;;;;;;9.00;7.00;;;;;27.11;38.11;99875.88;6320380;20;2750369;-50
2022/07/07 07:07:47;;;;;;;;;6.67;6.67;;;;;27.43;38.09;99879.16;6322147;20;2743995;-49
2022/07/07 07:10:15;;;;;;;;;9.00;8.00;;;;;27.44;37.58;99873.44;6320324;20;2749350;-48
2022/07/07 07:12:44;;;;;;;;;7.00;7.00;;;;;27.35;37.01;99875.47;6320962;20;2742037;-47
2022/07/07 07:15:13;;;;;;;;;8.33;8.33;;;;;27.95;36.45;99873.19;6329579;20;2747120;-51
2022/07/07 07:17:42;;;;;;;;;6.00;6.00;;;;;28.15;34.58;99872.47;6320116;20;2739922;-55
2022/07/07 07:20:18;;;;;;;;;8.33;8.00;;;;;27.95;36.05;99862.16;6320986;20;2737749;-54
2022/07/07 07:22:47;;;;;;;;;12.00;12.00;;;;;28.14;37.19;99877.13;6317485;20;3533636;-49
2022/07/07 07:25:17;;;;;;;;;7.67;7.67;;;;;28.25;36.22;99867.41;6298497;20;2738853;-52
2022/07/07 07:27:46;;;;;;;;;7.33;7.33;;;;;27.98;37.23;99867.25;6328073;20;2753785;-51
2022/07/07 07:30:14;;;;;;;;;8.33;7.00;;;;;27.98;36.57;99866.41;6319615;20;2748170;-52
2022/07/07 07:32:44;;;;;;;;;7.00;5.60;;;;;28.10;36.43;99870.31;6344776;20;2733609;-53
2022/07/07 07:35:12;;;;;;;;;8.00;8.00;;;;;28.24;35.44;99874.00;6291182;20;2746115;-53
2022/07/07 07:37:41;;;;;;;;;9.67;9.00;;;;;27.39;35.64;99873.19;6318678;20;2765983;-51
2022/07/07 07:40:12;;;;;;;;;6.67;6.67;;;;;27.63;36.63;99869.13;6318834;20;2739880;-53
2022/07/07 07:42:41;;;;;;;;;7.67;7.67;;;;;27.57;37.17;99880.97;6320740;20;2746107;-54
2022/07/07 07:45:10;;;;;;;;;9.00;7.00;;;;;28.46;35.94;99880.28;6318452;20;2748328;-52
2022/07/07 07:47:45;;;;;;;;;9.67;8.00;;;;;27.07;36.77;99874.56;6315353;20;2767955;-53
2022/07/07 07:50:20;;;;;;;;;7.00;7.00;;;;;27.91;35.48;99876.56;6316725;20;2736732;-52
2022/07/07 07:52:50;;;;;;;;;9.00;8.00;;;;;27.45;37.70;99871.53;6321786;20;2741913;-52
2022/07/07 07:55:21;;;;;;;;;6.67;6.67;;;;;27.83;36.25;99871.19;6317415;20;2736698;-49
2022/07/07 07:57:51;;;;;;;;;7.33;7.33;;;;;28.02;36.31;99867.72;6319936;20;2748284;-53
2022/07/07 08:00:22;;;;;;;;;7.00;6.33;;;;;28.48;35.70;99871.78;6316461;20;2744050;-50
2022/07/07 08:02:51;;;;;;;;;7.67;7.67;;;;;28.40;36.01;99870.03;6319445;20;2743004;-52
2022/07/07 08:05:20;;;;;;;;;8.00;8.00;;;;;28.35;36.28;99875.31;6320643;20;2744036;-55
2022/07/07 08:07:49;;;;;;;;;7.00;6.33;;;;;29.18;35.77;99872.44;6319044;20;2735721;-53
2022/07/07 08:10:18;;;;;;;;;9.33;8.00;;;;;28.27;36.06;99884.63;6315262;20;2750288;-53
2022/07/07 08:12:47;;;;;;;;;5.67;5.67;;;;;27.64;36.20;99868.06;6316366;20;2744032;-52
2022/07/07 08:15:18;;;;;;;;;7.67;7.67;;;;;28.35;35.46;99873.41;6320819;20;2745055;-54
2022/07/07 08:17:48;;;;;;;;;8.33;7.00;;;;;28.72;33.34;99873.16;6316363;20;2744023;-50
2022/07/07 08:20:18;;;;;;;;;7.00;7.00;;;;;28.89;33.27;99875.31;6320660;20;2741948;-49
2022/07/07 08:22:46;;;;;;;;;7.67;7.67;;;;;28.58;34.01;99869.50;6318364;20;2741947;-55
2022/07/07 08:25:15;;;;;;;;;8.00;8.00;;;;;28.32;34.61;99879.34;6326426;20;2739861;-54
2022/07/07 08:27:44;;;;;;;;;8.00;8.00;;;;;27.90;35.77;99861.91;6318266;20;2751335;-54
2022/07/07 08:30:13;;;;;;;;;7.00;7.00;;;;;28.58;33.75;99873.09;6323993;20;2744008;-51
2022/07/07 08:32:45;;;;;;;;;7.00;7.00;;;;;27.91;34.69;99871.03;6318028;20;2750278;-52
2022/07/07 08:35:16;;;;;;;;;7.00;7.00;;;;;28.21;34.56;99872.50;6321667;20;2739849;-51
2022/07/07 08:37:44;;;;;;;;;7.67;7.67;;;;;27.75;34.03;99867.53;6316990;20;2754405;-53
2022/07/07 08:40:13;;;;;;;;;7.33;7.00;;;;;28.29;32.79;99873.38;6326557;20;2746124;-53
2022/07/07 08:42:41;;;;;;;;;6.00;6.00;;;;;28.85;32.00;99867.66;6316896;20;2740913;-48
2022/07/07 08:45:11;;;;;;;;;7.67;6.67;;;;;28.37;34.06;99867.69;6319199;20;2731738;-52
2022/07/07 08:47:40;;;;;;;;;8.00;8.00;;;;;28.15;35.28;99865.03;6317601;20;2737795;-52
2022/07/07 08:50:16;;;;;;;;;8.00;8.00;;;;;28.09;34.42;99868.59;6313784;20;2745123;-53
2022/07/07 08:52:50;;;;;;;;;7.00;7.00;;;;;27.93;33.70;99868.94;6319518;20;2752356;-55
2022/07/07 08:55:23;;;;;;;;;8.33;8.33;;;;;27.57;35.27;99865.28;6317466;20;2746218;-52
2022/07/07 08:57:52;;;;;;;;;7.33;7.00;;;;;28.29;33.91;99862.34;6319068;20;2737797;-51
2022/07/07 09:00:22;;;;;;;;;6.33;6.33;;;;;27.97;34.48;99851.78;6318967;20;2742512;-51
2022/07/07 09:02:57;;;;;;;;;8.00;8.00;;;;;27.66;35.03;99854.09;6318406;20;2746618;-50
2022/07/07 09:05:26;;;;;;;;;7.67;7.33;;;;;27.60;34.33;99858.50;6319596;20;2737767;-52
2022/07/07 09:07:55;;;;;;;;;8.00;8.00;;;;;27.53;35.45;99857.59;6324092;20;2745076;-52
2022/07/07 09:10:37;;;;;;;;;7.00;7.00;;;;;28.15;34.40;99859.53;6323687;20;2748223;-49
2022/07/07 09:13:32;;;;;;;;;6.20;6.20;;;;;28.54;32.94;99858.03;6345593;20;2748166;-55
2022/07/07 09:16:15;;;;;;;;;7.67;7.00;;;;;29.70;32.57;99865.19;6337948;20;1787960;-53
2022/07/07 09:18:47;;;;;;;;;11.00;6.33;;;;;28.49;32.90;99855.03;6320122;20;2762743;-51
2022/07/07 09:21:32;;;;;;;;;7.00;7.00;;;;;28.17;33.70;99842.72;6322194;20;2748160;-53
2022/07/07 09:24:06;;;;;;;;;6.00;6.00;;;;;28.52;32.60;99839.94;6323131;20;2734769;-52
2022/07/07 09:26:43;;;;;;;;;7.00;7.00;;;;;28.62;33.84;99845.91;6322587;20;2731505;-54
2022/07/07 09:29:19;;;;;;;;;6.00;6.00;;;;;28.46;33.29;99841.59;6323323;20;2731564;-50
2022/07/07 09:32:04;;;;;;;;;7.00;7.00;;;;;28.00;33.38;99845.84;6324257;20;2746076;-52
2022/07/07 09:34:37;;;;;;;;;8.00;8.00;;;;;28.18;33.21;99845.28;6321989;20;2747119;-55
2022/07/07 09:39:57;;;;;;;;;7.00;7.00;;;;;28.17;32.97;99838.09;6322395;20;2736721;-51
2022/07/07 09:42:37;;;;;;;;;7.00;7.00;;;;;28.65;32.65;99834.47;6324947;20;2737786;-49
2022/07/07 09:45:11;;;;;;;;;9.00;8.00;;;;;28.65;32.60;99834.47;6321906;20;2754482;-52
2022/07/07 09:47:39;;;;;;;;;7.00;5.33;;;;;28.44;33.80;99835.47;6323901;20;2733662;-58
2022/07/07 09:50:13;;;;;;;;;9.33;8.00;;;;;29.16;32.12;99830.31;6326797;20;2750236;-58
2022/07/07 09:52:47;;;;;;;;;7.33;7.00;;;;;28.74;32.33;99837.88;6321399;20;2745072;-59
2022/07/07 09:55:16;;;;;;;;;6.00;6.00;;;;;28.02;33.35;99834.59;6322306;20;2738936;-59
2022/07/07 09:57:44;;;;;;;;;6.00;6.00;;;;;28.13;33.93;99838.69;6321703;20;2727323;-58
2022/07/07 10:00:15;;;;;;;;;10.00;8.33;;;;;28.00;33.60;99842.22;6319872;20;2771131;-58
2022/07/07 10:02:45;;;;;;;;;8.00;8.00;;;;;28.10;32.96;99844.63;6321337;20;2739972;-58
2022/07/07 10:05:19;;;;;;;;;7.00;7.00;;;;;28.57;33.33;99838.25;6320324;20;2740915;-63
2022/07/07 10:07:55;;;;;;;;;7.33;7.33;;;;;28.28;33.09;99844.03;6321084;20;2740889;-62
2022/07/07 10:10:24;;;;;;;;;7.00;7.00;;;;;28.48;33.65;99838.66;6318233;20;2752390;-62
2022/07/07 10:12:53;;;;;;;;;6.00;6.00;;;;;28.06;32.46;99833.13;6320887;20;2733037;-62
2022/07/07 10:15:24;;;;;;;;;8.67;8.67;;;;;27.86;34.04;99829.41;6321111;20;2741423;-63
2022/07/07 10:17:53;;;;;;;;;9.00;7.67;;;;;28.50;33.52;99826.34;6326530;20;2744212;-63
2022/07/07 10:20:21;;;;;;;;;9.00;8.00;;;;;28.09;33.11;99824.44;6325815;20;2748198;-62
2022/07/07 10:22:51;;;;;;;;;7.00;7.00;;;;;28.11;33.14;99825.06;6327219;20;2745125;-62
2022/07/07 10:25:19;;;;;;;;;7.00;7.00;;;;;27.83;33.82;99818.78;6316647;20;2746068;-63
2022/07/07 10:27:53;;;;;;;;;8.67;8.67;;;;;27.39;34.30;99822.72;6319695;20;2750352;-61
2022/07/07 10:30:31;;;;;;;;;7.33;7.33;;;;;26.82;35.08;99821.75;6321573;20;2738907;-63
2022/07/07 10:33:01;;;;;;;;;9.00;7.00;;;;;26.46;35.71;99809.69;6322059;20;2739840;-63
2022/07/07 10:35:42;;;;;;;;;7.00;7.00;;;;;26.18;35.49;99809.56;6320343;20;2734664;-63
2022/07/07 10:38:17;;;;;;;;;8.00;8.00;;;;;26.29;36.57;99808.22;6344969;20;2744036;-63
2022/07/07 10:40:54;;;;;;;;;12.33;9.33;;;;;26.18;36.55;99812.31;6287406;20;2783602;-62
2022/07/07 10:43:42;;;;;;;;;7.33;7.33;;;;;26.30;37.08;99812.66;6322894;20;2747192;-63
2022/07/07 10:46:11;;;;;;;;;7.33;7.33;;;;;26.27;35.93;99813.91;6317855;20;2750336;-63
2022/07/07 10:48:47;;;;;;;;;8.00;8.00;;;;;26.26;36.41;99806.69;6328417;20;2748629;-63
2022/07/07 10:51:24;;;;;;;;;8.33;7.00;;;;;25.87;37.09;99807.03;6320264;20;2748164;-63
2022/07/07 10:54:06;;;;;;;;;5.00;5.00;;;;;25.91;36.86;99807.50;6347246;20;2736740;-63
2022/07/07 10:56:55;;;;;;;;;7.33;7.33;;;;;26.17;35.86;99805.13;6318211;20;2754442;-63
2022/07/07 10:59:24;;;;;;;;;6.00;6.00;;;;;26.16;36.31;99803.38;6319371;20;2728387;-63
2022/07/07 11:02:02;;;;;;;;;7.67;6.33;;;;;25.79;37.16;99807.09;6318005;20;2749273;-63
2022/07/07 11:04:42;;;;;;;;;10.33;8.00;;;;;26.13;37.12;99802.94;6320908;20;2750279;-63
2022/07/07 11:07:20;;;;;;;;;7.00;7.00;;;;;26.32;37.14;99794.06;6318801;20;2746115;-63
2022/07/07 11:10:11;;;;;;;;;8.00;8.00;;;;;26.46;36.89;99798.69;6320642;20;2745036;-63
2022/07/07 11:12:51;;;;;;;;;7.67;7.67;;;;;26.21;36.83;99791.81;6321388;20;2742980;-63
2022/07/07 11:15:21;;;;;;;;;8.60;8.60;;;;;26.84;35.58;99795.69;6344304;20;2750310;-63
2022/07/07 11:18:10;;;;;;;;;7.33;6.67;;;;;26.79;36.03;99795.44;6288038;20;2741898;-64
2022/07/07 11:21:02;;;;;;;;;6.00;6.00;;;;;26.67;35.48;99792.38;6322514;20;2735840;-63
2022/07/07 11:23:57;;;;;;;;;6.67;6.67;;;;;26.77;35.26;99792.00;6318254;20;2742035;-63
2022/07/07 11:26:26;;;;;;;;;8.00;8.00;;;;;26.57;36.41;99785.44;6315824;20;2756483;-64
2022/07/07 11:28:58;;;;;;;;;7.00;7.00;;;;;26.55;36.53;99782.06;6318424;20;2744107;-64